createdAt,value
2023-04-20T00:01:30.971Z,8.23
2023-04-20T00:03:58.410Z,8.18
2023-04-20T00:06:29.841Z,8.10
2023-04-20T00:08:57.233Z,8.52
2023-04-20T00:11:24.951Z,8.52
2023-04-20T00:13:52.152Z,7.82
2023-04-20T00:16:19.784Z,8.48
2023-04-20T00:18:47.327Z,7.50
2023-04-20T00:21:15.297Z,8.40
2023-04-20T00:23:42.717Z,8.07
2023-04-20T00:26:10.728Z,8.52
2023-04-20T00:28:38.551Z,7.57
2023-04-20T00:31:08.198Z,7.53
2023-04-20T00:33:35.551Z,7.38
2023-04-20T00:36:03.406Z,7.60
2023-04-20T00:38:30.616Z,7.63
2023-04-20T00:41:00.280Z,6.72
2023-04-20T00:43:27.494Z,6.63
2023-04-20T00:45:55.170Z,7.82
2023-04-20T00:48:23.007Z,7.35
2023-04-20T00:50:51.077Z,7.43
2023-04-20T00:53:19.265Z,7.97
2023-04-20T00:55:47.574Z,7.65
2023-04-20T00:58:14.834Z,7.70
2023-04-20T01:00:42.345Z,8.07
2023-04-20T01:03:10.959Z,7.15
2023-04-20T01:05:39.121Z,7.22
2023-04-20T01:08:07.002Z,7.43
2023-04-20T01:10:34.577Z,7.03
2023-04-20T01:13:01.874Z,6.85
2023-04-20T01:15:29.697Z,7.00
2023-04-20T01:17:58.110Z,6.50
2023-04-20T01:20:25.720Z,6.72
2023-04-20T01:22:54.632Z,7.45
2023-04-20T01:25:22.317Z,6.28
2023-04-20T01:27:49.554Z,6.20
2023-04-20T01:30:17.410Z,5.72
2023-04-20T01:32:45.152Z,6.15
2023-04-20T01:35:12.983Z,6.18
2023-04-20T01:37:41.219Z,9.38
2023-04-20T01:40:10.724Z,7.97
2023-04-20T01:42:38.399Z,5.60
2023-04-20T01:45:06.686Z,6.53
2023-04-20T01:47:36.004Z,5.38
2023-04-20T01:50:03.722Z,5.55
2023-04-20T01:52:31.531Z,5.70
2023-04-20T01:54:59.154Z,5.75
2023-04-20T01:57:26.415Z,5.90
2023-04-20T01:59:54.709Z,5.40
2023-04-20T02:02:22.018Z,6.30
2023-04-20T02:04:49.641Z,5.93
2023-04-20T02:07:16.905Z,5.65
2023-04-20T02:09:44.383Z,5.72
2023-04-20T02:12:11.554Z,6.90
2023-04-20T02:14:40.574Z,6.90
2023-04-20T02:17:10.800Z,6.18
2023-04-20T02:19:38.555Z,5.88
2023-04-20T02:22:05.789Z,5.80
2023-04-20T02:24:33.369Z,6.07
2023-04-20T02:27:01.264Z,5.13
2023-04-20T02:29:28.804Z,5.75
2023-04-20T02:31:56.358Z,5.53
2023-04-20T02:34:24.579Z,6.38
2023-04-20T02:36:51.909Z,5.32
2023-04-20T02:39:19.551Z,5.78
2023-04-20T02:41:46.994Z,5.20
2023-04-20T02:44:14.577Z,5.18
2023-04-20T02:46:41.917Z,5.97
2023-04-20T02:49:09.782Z,6.18
2023-04-20T02:51:41.979Z,6.07
2023-04-20T02:54:09.563Z,5.38
2023-04-20T02:56:37.659Z,6.10
2023-04-20T02:59:09.432Z,6.38
2023-04-20T03:01:42.857Z,6.35
2023-04-20T03:04:21.179Z,6.10
2023-04-20T03:07:07.946Z,6.50
2023-04-20T03:09:37.529Z,6.00
2023-04-20T03:12:07.610Z,5.90
2023-04-20T03:14:53.032Z,6.35
2023-04-20T03:17:25.748Z,6.82
2023-04-20T03:19:53.330Z,6.80
2023-04-20T03:22:20.520Z,6.22
2023-04-20T03:24:53.625Z,7.45
2023-04-20T03:27:40.996Z,6.28
2023-04-20T03:30:13.115Z,6.50
2023-04-20T03:32:41.923Z,6.68
2023-04-20T03:35:09.806Z,5.63
2023-04-20T03:37:37.925Z,5.75
2023-04-20T03:40:08.713Z,6.85
2023-04-20T03:42:37.322Z,6.65
2023-04-20T03:45:06.803Z,6.07
2023-04-20T03:47:34.170Z,6.50
2023-04-20T03:50:01.810Z,7.05
2023-04-20T03:52:29.195Z,6.03
2023-04-20T03:54:57.799Z,6.18
2023-04-20T03:57:25.110Z,5.60
2023-04-20T03:59:52.854Z,5.85
2023-04-20T04:02:23.854Z,5.82
2023-04-20T04:04:53.123Z,6.00
2023-04-20T04:07:22.441Z,6.30
2023-04-20T04:09:50.735Z,5.70
2023-04-20T04:12:18.091Z,6.43
2023-04-20T04:14:46.424Z,5.70
2023-04-20T04:17:15.620Z,5.50
2023-04-20T04:37:49.871Z,5.78
2023-04-20T04:40:18.395Z,5.97
2023-04-20T04:42:48.725Z,5.68
2023-04-20T04:45:16.630Z,4.97
2023-04-20T04:47:44.266Z,6.63
2023-04-20T04:50:13.013Z,5.20
2023-04-20T04:52:40.681Z,5.05
2023-04-20T04:55:09.886Z,5.43
2023-04-20T04:57:38.815Z,5.22
2023-04-20T05:00:11.642Z,5.50
2023-04-20T05:02:39.518Z,5.57
2023-04-20T05:05:10.017Z,5.05
2023-04-20T05:07:38.653Z,4.53
2023-04-20T05:10:07.350Z,6.07
2023-04-20T05:12:34.918Z,5.05
2023-04-20T05:15:02.320Z,5.18
2023-04-20T05:17:29.905Z,5.55
2023-04-20T05:19:57.186Z,5.38
2023-04-20T05:22:24.739Z,6.00
2023-04-20T05:24:51.907Z,6.18
2023-04-20T05:27:19.369Z,5.50
2023-04-20T05:29:46.577Z,6.75
2023-04-20T05:32:14.030Z,6.20
2023-04-20T05:34:41.405Z,6.70
2023-04-20T05:37:09.535Z,6.28
2023-04-20T05:39:36.741Z,6.43
2023-04-20T05:42:04.253Z,6.93
2023-04-20T05:44:31.536Z,6.63
2023-04-20T05:46:59.032Z,6.55
2023-04-20T05:49:26.322Z,7.20
2023-04-20T05:51:53.869Z,6.45
2023-04-20T05:54:21.089Z,6.80
2023-04-20T05:56:48.556Z,6.43
2023-04-20T05:59:17.470Z,6.68
2023-04-20T06:01:45.099Z,6.13
2023-04-20T06:04:12.659Z,6.30
2023-04-20T06:06:40.520Z,6.30
2023-04-20T06:09:07.754Z,5.95
2023-04-20T06:11:35.560Z,5.90
2023-04-20T06:14:02.800Z,6.25
2023-04-20T06:16:30.425Z,5.55
2023-04-20T06:18:57.737Z,6.13
2023-04-20T06:21:27.342Z,5.55
2023-04-20T06:23:54.462Z,5.75
2023-04-20T06:26:22.225Z,8.20
2023-04-20T06:28:51.927Z,6.13
2023-04-20T06:31:20.298Z,5.88
2023-04-20T06:33:47.563Z,5.60
2023-04-20T06:36:15.430Z,6.32
2023-04-20T06:38:42.630Z,6.38
2023-04-20T06:41:10.104Z,6.07
2023-04-20T06:43:37.308Z,5.50
2023-04-20T06:46:04.840Z,5.85
2023-04-20T06:48:33.144Z,6.32
2023-04-20T06:51:01.617Z,5.72
2023-04-20T06:53:28.939Z,6.20
2023-04-20T06:55:56.945Z,6.60
2023-04-20T06:58:24.162Z,6.15
2023-04-20T07:00:51.663Z,5.82
2023-04-20T07:03:19.542Z,5.53
2023-04-20T07:05:47.191Z,5.47
2023-04-20T07:08:16.169Z,5.88
2023-04-20T07:10:43.858Z,5.05
2023-04-20T07:13:11.053Z,6.00
2023-04-20T07:15:38.539Z,5.28
2023-04-20T07:18:06.467Z,6.55
2023-04-20T07:20:33.978Z,5.80
2023-04-20T07:23:01.141Z,5.68
2023-04-20T07:25:29.500Z,6.30
2023-04-20T07:27:56.649Z,5.35
2023-04-20T07:30:24.627Z,6.22
2023-04-20T07:32:52.423Z,5.97
2023-04-20T07:35:20.002Z,5.93
2023-04-20T07:37:47.638Z,5.85
2023-04-20T07:40:16.998Z,5.75
2023-04-20T07:42:44.204Z,5.82
2023-04-20T07:45:13.291Z,5.63
2023-04-20T07:47:41.268Z,5.53
2023-04-20T07:50:09.109Z,5.75
2023-04-20T07:52:36.431Z,6.40
2023-04-20T07:55:05.160Z,5.63
2023-04-20T07:57:32.391Z,6.03
2023-04-20T07:59:59.883Z,6.20
2023-04-20T08:02:27.152Z,5.75
2023-04-20T08:04:55.130Z,6.07
2023-04-20T08:07:22.652Z,5.72
2023-04-20T08:09:50.242Z,6.18
2023-04-20T08:12:17.449Z,6.70
2023-04-20T08:14:45.315Z,6.25
2023-04-20T08:17:12.536Z,6.13
2023-04-20T08:19:41.199Z,6.47
2023-04-20T08:22:12.360Z,6.88
2023-04-20T08:24:39.890Z,6.40
2023-04-20T08:27:08.977Z,6.68
2023-04-20T08:29:36.842Z,6.85
2023-04-20T08:32:04.185Z,7.05
2023-04-20T08:34:31.658Z,6.38
2023-04-20T08:36:59.013Z,6.38
2023-04-20T08:39:26.743Z,5.88
2023-04-20T08:41:55.797Z,5.57
2023-04-20T08:44:24.820Z,6.20
2023-04-20T08:46:52.164Z,6.07
2023-04-20T08:49:21.638Z,6.13
2023-04-20T08:51:49.296Z,6.20
2023-04-20T08:54:17.466Z,6.50
2023-04-20T08:56:47.861Z,5.28
2023-04-20T08:59:17.035Z,5.63
2023-04-20T09:01:45.502Z,5.45
2023-04-20T09:04:20.351Z,5.82
2023-04-20T09:06:52.628Z,5.75
2023-04-20T09:09:22.240Z,6.32
2023-04-20T09:12:10.390Z,5.72
2023-04-20T09:14:45.240Z,5.90
2023-04-20T09:17:14.689Z,5.78
2023-04-20T09:19:44.929Z,6.43
2023-04-20T09:22:12.517Z,6.15
2023-04-20T09:24:42.357Z,6.30
2023-04-20T09:27:17.139Z,6.43
2023-04-20T09:29:57.836Z,6.25
2023-04-20T09:32:26.119Z,6.82
2023-04-20T09:34:53.665Z,6.28
2023-04-20T09:37:22.784Z,6.57
2023-04-20T09:39:50.707Z,6.70
2023-04-20T09:42:18.300Z,6.43
2023-04-20T09:44:46.094Z,5.85
2023-04-20T09:47:17.967Z,6.43
2023-04-20T09:49:48.867Z,6.93
2023-04-20T09:52:19.448Z,6.25
2023-04-20T09:54:46.995Z,6.40
2023-04-20T09:57:14.998Z,5.72
2023-04-20T09:59:44.461Z,5.72
2023-04-20T10:02:12.723Z,5.45
2023-04-20T10:04:56.777Z,6.43
2023-04-20T10:07:26.448Z,6.72
2023-04-20T10:10:24.077Z,6.32
2023-04-20T10:12:53.272Z,6.07
2023-04-20T10:15:27.287Z,6.40
2023-04-20T10:17:54.749Z,6.15
2023-04-20T10:20:25.404Z,6.35
2023-04-20T10:22:53.497Z,6.50
2023-04-20T10:25:24.892Z,6.32
2023-04-20T10:27:59.295Z,6.35
2023-04-20T10:30:28.658Z,5.70
2023-04-20T10:33:08.159Z,6.10
2023-04-20T10:35:49.286Z,6.43
2023-04-20T10:38:29.328Z,6.43
2023-04-20T10:40:57.184Z,5.40
2023-04-20T10:43:24.370Z,5.60
2023-04-20T10:45:52.424Z,5.15
2023-04-20T10:48:19.748Z,5.50
2023-04-20T10:50:47.343Z,5.30
2023-04-20T10:53:22.854Z,4.97
2023-04-20T10:56:00.436Z,4.85
2023-04-20T10:58:27.705Z,4.32
2023-04-20T11:01:02.499Z,4.45
2023-04-20T11:03:31.414Z,4.38
2023-04-20T11:06:03.972Z,5.72
2023-04-20T11:08:41.958Z,5.47
2023-04-20T11:11:27.821Z,5.60
2023-04-20T11:14:08.586Z,5.72
2023-04-20T11:16:48.062Z,5.00
2023-04-20T11:19:23.970Z,4.15
2023-04-20T11:21:51.491Z,5.70
2023-04-20T11:24:23.315Z,6.43
2023-04-20T11:26:53.318Z,5.90
2023-04-20T11:29:39.863Z,5.47
2023-04-20T11:32:10.892Z,5.88
2023-04-20T11:34:39.496Z,5.55
2023-04-20T11:37:13.178Z,5.50
2023-04-20T11:39:40.399Z,5.90
2023-04-20T11:42:07.909Z,5.18
2023-04-20T11:44:36.846Z,5.45
2023-04-20T11:47:04.627Z,5.10
2023-04-20T11:49:31.904Z,5.43
2023-04-20T11:51:59.407Z,5.60
2023-04-20T11:54:28.477Z,5.70
2023-04-20T11:56:56.577Z,5.97
2023-04-20T11:59:23.852Z,6.75
2023-04-20T12:01:52.293Z,5.63
2023-04-20T12:04:19.715Z,5.57
2023-04-20T12:06:47.503Z,5.80
2023-04-20T12:09:15.033Z,6.00
2023-04-20T12:11:42.658Z,6.22
2023-04-20T12:14:09.846Z,5.88
2023-04-20T12:16:37.439Z,5.97
2023-04-20T12:19:04.635Z,5.68
2023-04-20T12:21:32.562Z,5.43
2023-04-20T12:23:59.767Z,6.28
2023-04-20T12:26:37.301Z,5.75
2023-04-20T12:29:05.387Z,5.47
2023-04-20T12:31:32.986Z,5.65
2023-04-20T12:34:00.297Z,5.72
2023-04-20T12:36:28.197Z,6.10
2023-04-20T12:38:56.150Z,6.57
2023-04-20T12:41:24.557Z,6.28
2023-04-20T12:43:52.090Z,6.22
2023-04-20T12:46:19.584Z,6.03
2023-04-20T12:48:46.813Z,5.90
2023-04-20T12:51:15.384Z,6.63
2023-04-20T12:53:42.703Z,6.68
2023-04-20T12:56:10.349Z,6.25
2023-04-20T12:58:37.559Z,6.75
2023-04-20T13:01:05.164Z,5.90
2023-04-20T13:03:32.997Z,6.13
2023-04-20T13:06:00.661Z,5.97
2023-04-20T13:08:27.820Z,6.53
2023-04-20T13:10:55.337Z,6.53
2023-04-20T13:13:22.552Z,5.82
2023-04-20T13:15:50.244Z,5.80
2023-04-20T13:18:17.473Z,5.88
2023-04-20T13:20:44.954Z,6.60
2023-04-20T13:23:12.214Z,6.70
2023-04-20T13:25:40.871Z,5.72
2023-04-20T13:28:08.167Z,6.28
2023-04-20T13:30:35.715Z,7.07
2023-04-20T13:33:03.997Z,6.85
2023-04-20T13:35:31.575Z,6.32
2023-04-20T13:37:58.960Z,6.95
2023-04-20T13:40:26.568Z,5.68
2023-04-20T13:42:53.852Z,6.63
2023-04-20T13:45:21.441Z,5.93
2023-04-20T13:47:48.646Z,6.10
2023-04-20T13:50:16.319Z,6.78
2023-04-20T13:52:43.512Z,5.82
2023-04-20T13:55:11.342Z,6.45
2023-04-20T13:57:38.977Z,5.82
2023-04-20T14:00:07.706Z,6.32
2023-04-20T14:02:35.917Z,5.75
2023-04-20T14:05:04.242Z,5.22
2023-04-20T14:07:32.250Z,5.63
2023-04-20T14:10:00.174Z,6.20
2023-04-20T14:12:27.727Z,5.90
2023-04-20T14:14:58.866Z,5.50
2023-04-20T14:17:26.787Z,5.10
2023-04-20T14:19:54.432Z,5.60
2023-04-20T14:22:21.674Z,5.57
2023-04-20T14:24:49.435Z,5.90
2023-04-20T14:27:16.656Z,6.28
2023-04-20T14:29:44.160Z,5.55
2023-04-20T14:32:11.287Z,6.15
2023-04-20T14:34:38.810Z,5.70
2023-04-20T14:37:06.046Z,5.80
2023-04-20T14:39:33.529Z,5.68
2023-04-20T14:42:01.268Z,5.20
2023-04-20T14:44:28.745Z,5.70
2023-04-20T14:46:57.225Z,5.13
2023-04-20T14:49:24.875Z,5.43
2023-04-20T14:51:52.055Z,5.90
2023-04-20T14:54:19.788Z,5.88
2023-04-20T14:56:47.192Z,5.35
2023-04-20T14:59:14.868Z,5.55
2023-04-20T15:01:54.909Z,6.00
2023-04-20T15:04:29.414Z,5.38
2023-04-20T15:06:56.991Z,4.97
2023-04-20T15:09:24.735Z,5.43
2023-04-20T15:11:51.953Z,5.63
2023-04-20T15:14:20.496Z,5.20
2023-04-20T15:16:47.872Z,5.75
2023-04-20T15:19:15.372Z,5.38
2023-04-20T15:21:43.463Z,4.82
2023-04-20T15:24:12.031Z,5.40
2023-04-20T15:26:39.203Z,5.00
2023-04-20T15:29:06.801Z,4.57
2023-04-20T15:31:34.014Z,4.68
2023-04-20T15:34:01.468Z,5.35
2023-04-20T15:36:28.739Z,5.45
2023-04-20T15:38:57.864Z,5.40
2023-04-20T15:41:25.778Z,4.65
2023-04-20T15:43:53.235Z,4.53
2023-04-20T15:46:24.366Z,4.68
2023-04-20T15:48:53.173Z,4.57
2023-04-20T15:51:20.557Z,4.70
2023-04-20T15:53:50.739Z,4.57
2023-04-20T15:56:22.749Z,4.63
2023-04-20T15:58:51.641Z,4.55
2023-04-20T16:01:20.134Z,4.88
2023-04-20T16:03:49.784Z,5.32
2023-04-20T16:06:17.208Z,5.38
2023-04-20T16:08:45.408Z,5.07
2023-04-20T16:11:12.620Z,4.95
2023-04-20T16:13:40.107Z,4.90
2023-04-20T16:16:07.851Z,4.82
2023-04-20T16:18:35.475Z,5.05
2023-04-20T16:21:02.743Z,5.63
2023-04-20T16:23:30.221Z,4.60
2023-04-20T16:25:57.459Z,5.28
2023-04-20T16:28:25.030Z,4.63
2023-04-20T16:30:52.257Z,4.43
2023-04-20T16:33:20.169Z,5.30
2023-04-20T16:35:47.395Z,7.35
2023-04-20T16:38:14.973Z,4.50
2023-04-20T16:40:43.597Z,5.10
2023-04-20T16:43:11.150Z,4.50
2023-04-20T16:45:39.165Z,4.03
2023-04-20T16:48:08.346Z,4.30
2023-04-20T16:50:38.121Z,3.85
2023-04-20T16:53:08.965Z,3.47
2023-04-20T16:55:36.179Z,3.97
2023-04-20T16:58:03.724Z,4.93
2023-04-20T17:00:32.286Z,3.88
2023-04-20T17:03:02.807Z,3.20
2023-04-20T17:05:30.273Z,4.60
2023-04-20T17:07:57.804Z,4.05
2023-04-20T17:10:25.443Z,3.78
2023-04-20T17:12:53.165Z,4.00
2023-04-20T17:15:20.721Z,3.22
2023-04-20T17:17:48.227Z,3.53
2023-04-20T17:20:16.139Z,3.45
2023-04-20T17:22:43.622Z,4.32
2023-04-20T17:25:10.860Z,4.20
2023-04-20T17:27:38.450Z,3.83
2023-04-20T17:30:06.401Z,3.65
2023-04-20T17:32:33.984Z,3.60
2023-04-20T17:35:01.287Z,3.35
2023-04-20T17:37:29.053Z,3.95
2023-04-20T17:39:56.219Z,4.43
2023-04-20T17:42:23.788Z,3.55
2023-04-20T17:44:51.548Z,3.92
2023-04-20T17:47:19.101Z,3.53
2023-04-20T17:49:46.414Z,3.60
2023-04-20T17:52:17.999Z,4.75
2023-04-20T17:54:46.079Z,4.28
2023-04-20T17:57:14.339Z,3.95
2023-04-20T17:59:42.428Z,4.00
2023-04-20T18:02:11.972Z,3.63
2023-04-20T18:04:39.493Z,3.47
2023-04-20T18:07:07.101Z,3.35
2023-04-20T18:09:34.272Z,3.83
2023-04-20T18:12:01.975Z,3.35
2023-04-20T18:14:29.253Z,3.45
2023-04-20T18:16:56.768Z,3.38
2023-04-20T18:19:23.964Z,3.38
2023-04-20T18:21:51.441Z,4.43
2023-04-20T18:24:18.870Z,4.40
2023-04-20T18:26:46.625Z,4.80
2023-04-20T18:29:13.785Z,4.15
2023-04-20T18:31:41.326Z,3.28
2023-04-20T18:34:10.512Z,3.50
2023-04-20T18:36:38.199Z,3.83
2023-04-20T18:39:06.293Z,2.95
2023-04-20T18:41:33.782Z,3.00
2023-04-20T18:44:01.464Z,3.20
2023-04-20T18:46:29.027Z,2.78
2023-04-20T18:48:56.253Z,2.80
2023-04-20T18:51:23.808Z,2.58
2023-04-20T18:53:51.085Z,3.38
2023-04-20T18:56:18.562Z,3.00
2023-04-20T18:58:45.850Z,2.72
2023-04-20T19:01:13.531Z,2.63
2023-04-20T19:03:40.984Z,3.03
2023-04-20T19:06:08.631Z,2.30
2023-04-20T19:08:35.907Z,2.35
2023-04-20T19:11:03.435Z,2.53
2023-04-20T19:13:30.878Z,2.60
2023-04-20T19:15:58.354Z,2.70
2023-04-20T19:18:26.925Z,2.35
2023-04-20T19:20:54.750Z,2.42
2023-04-20T19:23:22.235Z,2.72
2023-04-20T19:25:49.760Z,2.25
2023-04-20T19:28:17.036Z,2.38
2023-04-20T19:30:44.963Z,2.55
2023-04-20T19:33:12.362Z,2.38
2023-04-20T19:35:41.856Z,2.72
2023-04-20T19:38:09.167Z,2.70
2023-04-20T19:40:36.710Z,2.70
2023-04-20T19:43:03.964Z,2.75
2023-04-20T19:45:31.439Z,2.38
2023-04-20T19:47:58.714Z,2.22
2023-04-20T19:50:26.331Z,1.90
2023-04-20T19:52:53.797Z,2.47
2023-04-20T19:55:21.393Z,2.53
2023-04-20T19:57:48.758Z,2.17
2023-04-20T20:00:16.609Z,2.35
2023-04-20T20:02:44.249Z,2.65
2023-04-20T20:05:11.846Z,2.35
2023-04-20T20:07:39.146Z,2.28
2023-04-20T20:10:07.431Z,2.20
2023-04-20T20:12:34.649Z,2.55
2023-04-20T20:15:03.691Z,2.63
2023-04-20T20:17:32.483Z,2.22
2023-04-20T20:20:00.454Z,2.58
2023-04-20T20:22:27.728Z,2.30
2023-04-20T20:24:55.245Z,2.38
2023-04-20T20:27:22.452Z,2.30
2023-04-20T20:29:49.946Z,2.47
2023-04-20T20:32:17.193Z,2.20
2023-04-20T20:34:44.684Z,2.53
2023-04-20T20:37:12.044Z,2.65
2023-04-20T20:39:39.999Z,2.58
2023-04-20T20:42:09.224Z,3.00
2023-04-20T20:44:38.958Z,2.13
2023-04-20T20:47:06.826Z,2.97
2023-04-20T20:49:34.354Z,2.55
2023-04-20T20:52:02.408Z,3.35
2023-04-20T20:54:30.012Z,2.88
2023-04-20T20:56:57.722Z,2.70
2023-04-20T20:59:25.192Z,2.55
2023-04-20T21:01:52.383Z,2.38
2023-04-20T21:04:19.962Z,2.60
2023-04-20T21:06:47.206Z,2.30
2023-04-20T21:09:15.494Z,2.45
2023-04-20T21:11:42.680Z,2.55
2023-04-20T21:14:10.711Z,2.60
2023-04-20T21:16:37.934Z,2.67
2023-04-20T21:19:05.702Z,2.70
2023-04-20T21:21:33.993Z,3.00
2023-04-20T21:24:01.503Z,3.78
2023-04-20T21:26:34.902Z,2.70
2023-04-20T21:29:03.411Z,1.90
2023-04-20T21:31:31.525Z,2.20
2023-04-20T21:34:00.059Z,2.15
2023-04-20T21:36:28.002Z,2.30
2023-04-20T21:38:55.896Z,3.00
2023-04-20T21:41:23.347Z,2.40
2023-04-20T21:43:52.792Z,2.42
2023-04-20T21:46:20.006Z,3.33
2023-04-20T21:48:47.718Z,2.80
2023-04-20T21:51:16.381Z,3.90
2023-04-20T21:53:44.845Z,2.67
2023-04-20T21:56:12.692Z,2.55
2023-04-20T21:58:40.245Z,2.50
2023-04-20T22:01:07.658Z,2.40
2023-04-20T22:03:37.223Z,2.83
2023-04-20T22:06:06.577Z,2.28
2023-04-20T22:08:34.138Z,3.30
2023-04-20T22:11:01.355Z,3.08
2023-04-20T22:13:28.820Z,2.60
2023-04-20T22:15:56.300Z,3.40
2023-04-20T22:18:23.928Z,4.70
2023-04-20T22:20:51.537Z,3.50
2023-04-20T22:23:19.009Z,2.95
2023-04-20T22:25:46.322Z,2.70
2023-04-20T22:28:14.106Z,2.60
2023-04-20T22:30:42.578Z,2.22
2023-04-20T22:33:10.180Z,2.80
2023-04-20T22:35:37.584Z,2.85
2023-04-20T22:38:05.219Z,2.70
2023-04-20T22:40:32.494Z,2.30
2023-04-20T22:42:59.971Z,2.88
2023-04-20T22:45:27.154Z,2.40
2023-04-20T22:47:54.654Z,2.80
2023-04-20T22:50:21.831Z,2.47
2023-04-20T22:52:50.511Z,1.90
2023-04-20T22:55:17.798Z,2.55
2023-04-20T22:57:45.302Z,5.00
2023-04-20T23:00:13.940Z,2.50
2023-04-20T23:02:41.853Z,2.80
2023-04-20T23:05:09.761Z,3.00
2023-04-20T23:07:37.649Z,2.28
2023-04-20T23:10:06.182Z,2.40
2023-04-20T23:12:33.826Z,2.50
2023-04-20T23:15:01.469Z,3.10
2023-04-20T23:17:30.221Z,4.07
2023-04-20T23:19:57.459Z,2.83
2023-04-20T23:22:24.901Z,2.50
2023-04-20T23:24:52.190Z,4.35
2023-04-20T23:27:19.654Z,3.10
2023-04-20T23:29:46.812Z,3.97
2023-04-20T23:32:14.479Z,3.30
2023-04-20T23:34:41.666Z,3.20
2023-04-20T23:37:09.139Z,3.10
2023-04-20T23:39:37.811Z,7.53
2023-04-20T23:42:05.924Z,3.75
2023-04-20T23:44:33.242Z,3.65
2023-04-20T23:47:00.879Z,3.25
2023-04-20T23:49:28.110Z,2.67
2023-04-20T23:51:55.588Z,2.70
2023-04-20T23:54:22.767Z,3.47
2023-04-20T23:56:50.575Z,3.70
2023-04-20T23:59:18.151Z,3.97
